Terminal Aerodrome Forecast
Issued by NWS Charleston, WV

Current Version | Previous Version | Graphics & Text | Print | Product List | Glossary On
Versions: 1 2 3 4 5 6 7 8 9 10 11 12 13 14 15 16 17 18 19 20 21 22
000
FTUS41 KRLX 180800 AAA
TAFEKN
TAF AMD
KEKN 180826Z 1808/1906 00000KT 1/4SM FG VV001
     FM181200 00000KT 1/2SM FG BKN002
     FM181300 00000KT 2SM BR SCT008
     FM181400 00000KT P6SM SCT250
     FM181800 34006KT P6SM SCT250
     FM190300 04005KT P6SM FEW150
     FM190500 06006KT P6SM SCT050=

USA.gov is the U.S. government's official web portal to all federal, state and local government web resources and services.